Time;durP1;ratioP1;P1;durP2;ratioP2;P2;SDS_P1;SDS_P2;PMS_P1;PMS_P2;Temp;Humidity;BMP_temperature;BMP_pressure;BME280_temperature;BME280_humidity;BME280_pressure;Samples;Min_cycle;Max_cycle;Signal;HPM_P1;HPM_P2
2022/04/22 00:00:42;;;;;;;30.85;18.17;;;;;;;11.27;81.04;100709.69;5068240;28;20056;-72
2022/04/22 00:03:09;;;;;;;29.60;19.15;;;;;;;11.08;81.83;100715.94;5068818;28;20041;-72
2022/04/22 00:05:37;;;;;;;32.67;19.17;;;;;;;11.24;81.83;100713.28;5069153;28;20549;-72
2022/04/22 00:08:04;;;;;;;29.48;18.42;;;;;;;11.50;80.50;100707.44;5063101;28;20115;-72
2022/04/22 00:10:31;;;;;;;27.85;17.25;;;;;;;11.42;80.34;100714.09;5065863;28;20448;-72
2022/04/22 00:12:57;;;;;;;27.15;18.05;;;;;;;11.33;80.97;100704.94;5066819;28;20037;-72
2022/04/22 00:15:24;;;;;;;29.23;17.90;;;;;;;11.12;81.20;100703.50;5084763;28;20113;-72
2022/04/22 00:17:50;;;;;;;29.20;18.67;;;;;;;11.15;81.14;100704.16;5088600;28;20048;-72
2022/04/22 00:20:17;;;;;;;27.08;18.25;;;;;;;11.37;80.39;100697.72;5066928;28;20073;-72
2022/04/22 00:22:45;;;;;;;25.85;17.20;;;;;;;11.38;79.76;100697.63;5066937;28;20097;-73
2022/04/22 00:25:14;;;;;;;27.10;17.60;;;;;;;11.27;79.98;100688.69;5074601;28;20059;-73
2022/04/22 00:27:41;;;;;;;31.13;17.65;;;;;;;11.34;79.65;100685.63;5073579;28;20048;-72
2022/04/22 00:30:11;;;;;;;32.00;18.55;;;;;;;11.32;79.67;100682.22;5057380;28;20040;-74
2022/04/22 00:32:38;;;;;;;32.15;18.33;;;;;;;11.35;79.82;100691.69;5066673;28;20495;-74
2022/04/22 00:35:05;;;;;;;26.00;17.63;;;;;;;11.30;79.77;100691.97;5065891;28;20047;-75
2022/04/22 00:37:31;;;;;;;29.60;18.23;;;;;;;11.40;79.74;100693.16;5066760;28;20048;-74
2022/04/22 00:39:59;;;;;;;27.70;17.90;;;;;;;11.34;80.01;100687.41;5066870;28;20040;-74
2022/04/22 00:42:28;;;;;;;30.35;18.05;;;;;;;11.33;80.39;100676.06;5067102;28;20045;-74
2022/04/22 00:44:55;;;;;;;30.30;19.38;;;;;;;11.19;80.89;100661.09;5056012;28;20432;-74
2022/04/22 00:47:22;;;;;;;32.08;18.58;;;;;;;11.21;81.10;100660.97;5057902;28;20463;-74
2022/04/22 00:49:48;;;;;;;29.55;18.52;;;;;;;11.36;80.31;100665.38;5067230;28;20587;-74
2022/04/22 00:52:15;;;;;;;30.70;17.90;;;;;;;11.20;80.38;100657.50;5067322;28;20040;-74
2022/04/22 00:54:42;;;;;;;28.13;17.13;;;;;;;11.27;80.53;100658.00;5067110;28;20044;-74
2022/04/22 00:57:10;;;;;;;27.15;17.15;;;;;;;11.00;80.96;100654.28;5061761;28;20044;-74
2022/04/22 00:59:37;;;;;;;31.13;18.35;;;;;;;10.98;81.03;100650.88;5067187;28;20044;-73
2022/04/22 01:02:04;;;;;;;29.63;17.08;;;;;;;10.99;81.26;100649.97;5073926;28;20044;-75
2022/04/22 01:09:59;;;;;;;28.77;17.90;;;;;;;11.10;81.21;100642.34;5085007;28;20173;-74
2022/04/22 01:12:30;;;;;;;27.75;17.30;;;;;;;11.17;80.48;100633.22;5086522;28;20044;-75
2022/04/22 01:14:58;;;;;;;28.27;17.83;;;;;;;11.27;80.02;100642.25;5078422;28;20555;-74
2022/04/22 01:17:25;;;;;;;34.58;18.55;;;;;;;11.41;79.63;100634.47;5086704;28;20044;-74
2022/04/22 01:19:52;;;;;;;27.70;17.17;;;;;;;11.43;79.67;100637.00;5087652;28;20123;-74
2022/04/22 01:22:19;;;;;;;30.85;17.77;;;;;;;11.51;79.21;100627.75;5087651;28;20040;-74
2022/04/22 01:24:46;;;;;;;27.63;17.98;;;;;;;11.19;80.65;100634.84;5087325;28;20638;-74
2022/04/22 01:27:14;;;;;;;33.75;18.48;;;;;;;11.04;81.98;100629.59;5084497;28;20060;-74
2022/04/22 01:29:40;;;;;;;28.67;16.90;;;;;;;11.15;81.71;100627.22;5066765;28;20040;-74
2022/04/22 01:32:07;;;;;;;27.90;16.65;;;;;;;11.37;80.46;100632.09;5067436;28;20090;-74
2022/04/22 01:34:34;;;;;;;27.95;16.95;;;;;;;11.39;80.28;100620.56;5070005;28;20094;-74
2022/04/22 01:37:00;;;;;;;27.00;15.68;;;;;;;11.43;79.75;100624.72;5087944;28;20040;-74
2022/04/22 01:39:29;;;;;;;26.85;16.65;;;;;;;11.33;80.10;100620.94;5086264;28;20102;-74
2022/04/22 01:41:55;;;;;;;27.55;16.40;;;;;;;11.11;81.23;100621.28;5085681;28;20044;-73
2022/04/22 01:44:21;;;;;;;25.65;15.00;;;;;;;11.09;81.08;100622.28;5079901;28;20040;-73
2022/04/22 01:46:48;;;;;;;21.70;12.40;;;;;;;11.20;80.40;100619.91;5088195;28;20097;-73
2022/04/22 01:49:14;;;;;;;19.25;10.57;;;;;;;10.98;80.22;100622.03;5087008;28;20490;-73
2022/04/22 01:51:41;;;;;;;16.65;9.50;;;;;;;10.90;80.45;100617.19;5087825;28;20499;-73
2022/04/22 01:54:07;;;;;;;13.20;8.57;;;;;;;10.89;79.74;100620.78;5089332;28;20040;-73
2022/04/22 01:56:35;;;;;;;13.40;8.25;;;;;;;10.96;79.14;100616.03;5090090;28;20093;-73
2022/04/22 01:59:01;;;;;;;14.45;7.95;;;;;;;10.78;79.30;100619.66;5081471;28;20052;-73
2022/04/22 02:01:27;;;;;;;13.10;6.70;;;;;;;10.72;78.99;100616.44;5092283;28;20499;-73
2022/04/22 02:03:54;;;;;;;11.60;6.85;;;;;;;10.60;79.07;100608.41;5092832;28;20036;-73
2022/04/22 02:06:20;;;;;;;11.02;6.63;;;;;;;10.37;79.57;100607.00;5094491;28;20093;-73
2022/04/22 02:08:46;;;;;;;9.25;5.78;;;;;;;10.25;80.10;100605.03;5094083;28;20051;-73
2022/04/22 02:11:13;;;;;;;8.27;5.65;;;;;;;10.35;79.33;100606.22;5084209;28;21697;-73
2022/04/22 02:13:40;;;;;;;10.23;5.55;;;;;;;10.11;79.98;100597.00;5109284;28;20067;-73
2022/04/22 02:16:07;;;;;;;10.20;5.55;;;;;;;10.20;79.86;100599.16;5118738;28;20035;-73
2022/04/22 02:18:36;;;;;;;11.30;5.50;;;;;;;10.22;79.46;100598.19;5118077;28;20043;-73
2022/04/22 02:21:03;;;;;;;8.77;4.82;;;;;;;10.07;79.74;100603.31;5100107;28;20591;-73
2022/04/22 02:23:30;;;;;;;10.68;5.00;;;;;;;10.07;79.63;100587.59;5092076;28;20064;-73
2022/04/22 02:25:56;;;;;;;9.88;4.35;;;;;;;9.95;79.34;100593.47;5086538;28;20044;-73
2022/04/22 02:28:34;;;;;;;8.48;4.72;;;;;;;10.05;79.48;100602.56;5093312;28;20044;-73
2022/04/22 02:31:04;;;;;;;7.43;4.30;;;;;;;10.10;78.68;100590.06;5092082;28;20044;-73
2022/04/22 02:33:30;;;;;;;11.75;4.43;;;;;;;9.86;79.63;100593.97;5093197;28;20052;-74
2022/04/22 02:35:57;;;;;;;7.38;4.78;;;;;;;9.98;79.19;100593.31;5093758;28;20059;-74
2022/04/22 02:38:23;;;;;;;9.38;4.57;;;;;;;9.90;79.08;100579.78;5114379;28;20028;-74
2022/04/22 02:46:20;;;;;;;6.80;4.75;;;;;;;9.94;78.76;100582.13;5117032;28;20039;-74
2022/04/22 02:48:46;;;;;;;7.30;4.45;;;;;;;9.83;79.28;100588.88;5116580;28;20036;-74
2022/04/22 02:51:12;;;;;;;7.20;4.38;;;;;;;10.06;78.17;100592.00;5116026;28;20043;-74
2022/04/22 02:53:39;;;;;;;8.50;4.60;;;;;;;10.03;78.29;100586.06;5105542;28;20036;-73
2022/04/22 02:56:06;;;;;;;13.02;4.93;;;;;;;10.07;78.21;100592.84;5115820;28;20082;-73
2022/04/22 02:58:33;;;;;;;10.65;4.68;;;;;;;10.13;78.06;100590.75;5100319;28;20074;-73
2022/04/22 03:00:59;;;;;;;6.13;3.95;;;;;;;10.18;77.64;100586.16;5090896;28;20043;-73
2022/04/22 03:03:27;;;;;;;8.18;5.18;;;;;;;10.34;76.92;100580.97;5091468;28;20044;-73
2022/04/22 03:05:53;;;;;;;10.85;4.80;;;;;;;10.46;76.09;100579.44;5091323;28;20044;-73
2022/04/22 03:08:20;;;;;;;6.97;4.35;;;;;;;10.57;75.86;100577.94;5091125;28;20044;-73
2022/04/22 03:10:48;;;;;;;13.45;4.57;;;;;;;10.51;75.66;100578.28;5083898;28;20047;-73
2022/04/22 03:13:14;;;;;;;11.27;4.97;;;;;;;10.50;75.61;100578.34;5083853;28;20048;-73
2022/04/22 03:15:41;;;;;;;10.73;4.85;;;;;;;10.39;75.84;100573.69;5089224;28;20105;-73
2022/04/22 03:18:08;;;;;;;7.22;4.57;;;;;;;10.44;75.23;100571.66;5088281;28;20040;-73
2022/04/22 03:20:35;;;;;;;8.40;4.60;;;;;;;10.51;74.82;100574.81;5089449;28;20044;-73
2022/04/22 03:23:02;;;;;;;6.43;4.25;;;;;;;10.43;75.24;100572.59;5090028;28;20109;-73
2022/04/22 03:25:28;;;;;;;8.88;4.80;;;;;;;10.34;75.29;100575.72;5089446;28;20082;-74
2022/04/22 03:27:55;;;;;;;11.98;4.35;;;;;;;10.06;75.49;100567.56;5076648;28;20078;-73
2022/04/22 03:30:21;;;;;;;7.85;3.60;;;;;;;10.02;75.14;100576.50;5078424;28;20051;-73
2022/04/22 03:32:48;;;;;;;7.20;3.67;;;;;;;9.94;75.06;100571.66;5089080;28;20044;-73
2022/04/22 03:35:14;;;;;;;6.97;3.60;;;;;;;10.14;74.21;100576.75;5088655;28;20121;-72
2022/04/22 03:37:42;;;;;;;6.97;3.53;;;;;;;9.85;74.80;100569.53;5089787;28;20048;-72
2022/04/22 03:40:10;;;;;;;6.38;3.60;;;;;;;9.64;75.53;100570.63;5088035;28;20416;-72
2022/04/22 03:42:36;;;;;;;7.22;3.85;;;;;;;9.56;75.36;100571.03;5086467;28;20123;-72
2022/04/22 03:45:03;;;;;;;6.05;3.47;;;;;;;9.56;75.60;100575.41;5082611;28;20630;-72
2022/04/22 03:47:29;;;;;;;7.32;3.70;;;;;;;9.79;74.68;100565.44;5088337;28;20101;-72
2022/04/22 03:49:56;;;;;;;9.30;3.65;;;;;;;9.64;74.21;100570.63;5088417;27;20044;-73
2022/04/22 03:52:22;;;;;;;6.68;3.65;;;;;;;9.60;74.44;100564.72;5089897;28;20063;-73
2022/04/22 03:54:50;;;;;;;6.80;3.40;;;;;;;9.33;75.60;100573.91;5088535;28;20040;-73
2022/04/22 04:00:00;;;;;;;6.55;3.65;;;;;;;9.55;74.50;100558.84;5088222;28;20050;-73
2022/04/22 04:02:28;;;;;;;6.95;3.63;;;;;;;9.53;74.48;100558.09;5088238;28;20047;-73
2022/04/22 04:04:54;;;;;;;7.30;3.60;;;;;;;9.56;74.46;100557.94;5088526;28;20119;-73
2022/04/22 04:07:20;;;;;;;9.00;3.65;;;;;;;9.53;74.25;100565.09;5088895;28;20040;-73
2022/04/22 04:18:00;;;;;;;7.35;3.67;;;;;;;9.55;73.14;100556.22;5087756;28;20055;-73
2022/04/22 04:23:17;;;;;;;6.60;3.63;;;;;;;9.58;73.37;100563.91;5085540;28;20533;-73
2022/04/22 04:25:45;;;;;;;9.27;3.92;;;;;;;9.60;73.71;100554.25;5085459;28;20102;-73
2022/04/22 04:28:13;;;;;;;6.15;3.53;;;;;;;9.41;73.94;100561.31;5083329;28;20419;-73
2022/04/22 04:30:40;;;;;;;6.63;3.40;;;;;;;9.17;75.55;100567.72;5088008;28;20059;-73
2022/04/22 04:33:07;;;;;;;8.63;4.22;;;;;;;9.17;75.64;100576.44;5088419;28;20047;-73
2022/04/22 04:35:35;;;;;;;9.60;4.38;;;;;;;9.33;75.69;100563.44;5087824;28;20474;-73
2022/04/22 04:38:01;;;;;;;8.70;3.92;;;;;;;9.31;76.04;100562.69;5088560;28;20095;-73
2022/04/22 04:40:28;;;;;;;10.65;4.18;;;;;;;9.29;76.15;100567.13;5085795;28;20063;-74
2022/04/22 04:42:54;;;;;;;15.07;4.38;;;;;;;9.36;75.83;100563.28;5079287;28;20101;-74
2022/04/22 04:45:22;;;;;;;10.57;4.55;;;;;;;9.06;76.71;100568.25;5085399;28;20048;-74
2022/04/22 04:47:48;;;;;;;11.65;4.95;;;;;;;9.12;76.59;100564.50;5088121;28;20036;-74
2022/04/22 04:50:14;;;;;;;9.10;4.78;;;;;;;8.96;76.99;100567.00;5082147;28;20117;-74
2022/04/22 04:52:41;;;;;;;9.23;4.57;;;;;;;9.00;76.44;100568.56;5081931;28;20156;-74
2022/04/22 04:55:10;;;;;;;11.50;4.47;;;;;;;8.84;76.98;100562.34;5088082;28;20066;-74
2022/04/22 04:57:37;;;;;;;8.23;4.43;;;;;;;8.98;76.41;100566.94;5085068;28;20075;-74
2022/04/22 05:00:05;;;;;;;11.98;4.80;;;;;;;8.97;76.50;100570.47;5087653;28;20052;-74
2022/04/22 05:02:33;;;;;;;12.98;5.03;;;;;;;8.88;76.62;100571.75;5088120;28;20500;-74
2022/04/22 05:04:59;;;;;;;11.23;4.85;;;;;;;8.90;76.50;100563.84;5088195;28;20047;-74
2022/04/22 05:07:26;;;;;;;9.95;4.68;;;;;;;8.93;76.69;100574.16;5086925;28;20392;-71
2022/04/22 05:09:52;;;;;;;9.93;4.63;;;;;;;8.92;76.35;100569.84;5074978;28;20580;-71
2022/04/22 05:12:18;;;;;;;10.80;5.15;;;;;;;8.90;76.11;100571.69;5075619;28;20048;-71
2022/04/22 05:14:46;;;;;;;12.77;5.07;;;;;;;8.52;77.79;100566.47;5081656;28;20086;-71
2022/04/22 05:17:12;;;;;;;12.07;4.70;;;;;;;8.39;77.76;100567.13;5081151;28;20044;-71
2022/04/22 05:19:40;;;;;;;10.20;5.75;;;;;;;8.34;78.18;100566.47;5087132;28;20044;-71
2022/04/22 05:22:06;;;;;;;10.45;4.20;;;;;;;8.41;77.52;100565.25;5070483;28;20532;-70
2022/04/22 05:24:34;;;;;;;10.32;4.78;;;;;;;8.49;77.54;100564.00;5076967;28;20098;-71
2022/04/22 05:27:01;;;;;;;10.50;5.05;;;;;;;8.37;78.45;100563.72;5079262;28;20074;-71
2022/04/22 05:34:56;;;;;;;13.10;5.50;;;;;;;8.75;76.73;100568.88;5091701;28;20100;-71
2022/04/22 05:37:23;;;;;;;10.02;4.70;;;;;;;8.90;76.81;100569.06;5089208;28;20052;-70
2022/04/22 05:39:49;;;;;;;12.30;5.18;;;;;;;9.09;76.47;100569.91;5071068;28;20048;-70
2022/04/22 05:42:16;;;;;;;12.13;4.75;;;;;;;9.06;76.29;100563.03;5071737;28;20056;-69
2022/04/22 05:44:42;;;;;;;11.30;5.07;;;;;;;9.19;75.92;100565.91;5071599;28;20052;-71
2022/04/22 05:47:09;;;;;;;10.60;5.18;;;;;;;9.14;75.52;100570.50;5071814;28;20072;-70
2022/04/22 05:49:36;;;;;;;16.02;4.72;;;;;;;9.02;75.80;100564.09;5087143;28;20108;-70
2022/04/22 05:52:04;;;;;;;10.57;5.45;;;;;;;9.14;75.97;100565.28;5091588;28;20044;-69
2022/04/22 05:54:31;;;;;;;10.57;4.85;;;;;;;9.37;75.65;100564.16;5090678;28;20184;-70
2022/04/22 05:56:57;;;;;;;10.18;5.30;;;;;;;9.43;75.00;100564.69;5082707;28;20048;-70
2022/04/22 05:59:24;;;;;;;11.93;5.18;;;;;;;9.34;74.27;100562.53;5091410;28;20040;-70
2022/04/22 06:01:50;;;;;;;11.13;5.38;;;;;;;9.08;76.11;100557.72;5090831;28;20458;-70
2022/04/22 06:04:16;;;;;;;9.27;6.07;;;;;;;9.31;75.56;100560.09;5091278;28;20044;-69
2022/04/22 06:06:43;;;;;;;12.13;5.80;;;;;;;9.26;75.36;100551.59;5090863;28;20052;-69
2022/04/22 06:11:55;;;;;;;8.52;5.03;;;;;;;9.41;74.60;100548.22;5091268;28;20545;-71
2022/04/22 06:14:21;;;;;;;8.63;5.65;;;;;;;9.18;75.15;100558.97;5091263;28;20067;-70
2022/04/22 06:16:47;;;;;;;15.43;6.10;;;;;;;9.28;75.58;100563.66;5088266;28;20815;-70
2022/04/22 06:19:14;;;;;;;10.95;6.07;;;;;;;9.40;74.67;100564.00;5087796;28;20048;-70
2022/04/22 06:21:40;;;;;;;10.82;5.40;;;;;;;9.41;75.40;100548.22;5089859;28;20052;-70
2022/04/22 06:24:07;;;;;;;13.98;5.65;;;;;;;9.59;74.26;100543.84;5071081;28;20045;-70
2022/04/22 06:26:35;;;;;;;13.55;5.57;;;;;;;9.79;73.99;100552.34;5082289;28;20048;-70
2022/04/22 06:29:01;;;;;;;16.15;5.70;;;;;;;10.01;73.33;100565.22;5089225;28;20226;-71
2022/04/22 06:31:29;;;;;;;14.35;6.28;;;;;;;10.00;73.55;100560.88;5091092;28;20496;-71
2022/04/22 06:33:56;;;;;;;10.38;5.50;;;;;;;9.94;73.28;100550.72;5091292;28;20044;-71
2022/04/22 06:36:28;;;;;;;13.43;6.28;;;;;;;10.11;73.33;100552.47;5088459;28;20051;-70
2022/04/22 06:38:58;;;;;;;11.07;6.00;;;;;;;10.12;73.34;100544.53;5089924;28;20040;-70
2022/04/22 06:46:55;;;;;;;11.27;6.07;;;;;;;11.17;69.56;100541.34;5103643;28;20177;-71
2022/04/22 06:49:23;;;;;;;11.18;5.88;;;;;;;11.51;69.42;100541.09;5090067;28;20060;-70
2022/04/22 06:51:50;;;;;;;10.68;6.22;;;;;;;11.75;68.65;100538.81;5089886;28;20047;-70
2022/04/22 06:54:18;;;;;;;11.80;5.80;;;;;;;11.61;68.32;100537.00;5090318;28;20412;-70
2022/04/22 06:56:45;;;;;;;10.57;5.70;;;;;;;11.84;67.42;100543.53;5088457;28;20040;-70
2022/04/22 06:59:15;;;;;;;15.77;5.80;;;;;;;11.66;67.38;100552.50;5089903;28;20043;-70
2022/04/22 07:01:41;;;;;;;11.57;6.57;;;;;;;11.67;66.82;100549.78;5090511;28;20063;-70
2022/04/22 07:04:09;;;;;;;10.20;5.63;;;;;;;12.07;65.92;100547.41;5089870;28;20492;-71
2022/04/22 07:06:36;;;;;;;13.73;6.35;;;;;;;12.21;65.37;100536.91;5090230;28;20059;-71
2022/04/22 07:09:03;;;;;;;11.18;5.95;;;;;;;12.71;65.96;100541.66;5089687;28;20101;-71
2022/04/22 07:11:31;;;;;;;11.32;6.47;;;;;;;13.08;63.97;100538.31;5089961;28;20093;-71
2022/04/22 07:13:59;;;;;;;11.80;6.18;;;;;;;13.04;63.73;100538.63;5089835;28;20097;-71
2022/04/22 07:16:27;;;;;;;9.40;5.40;;;;;;;12.77;64.45;100545.66;5089692;28;20097;-70
2022/04/22 07:18:55;;;;;;;12.25;6.30;;;;;;;12.43;65.01;100550.41;5081188;28;20056;-70
2022/04/22 07:21:22;;;;;;;11.98;6.15;;;;;;;12.67;65.73;100548.84;5090447;28;20082;-70
2022/04/22 07:23:49;;;;;;;14.27;7.25;;;;;;;12.63;65.50;100547.38;5109378;27;20048;-70
2022/04/22 07:26:17;;;;;;;13.95;7.30;;;;;;;12.77;66.39;100548.28;5086238;28;20044;-71
2022/04/22 07:28:47;;;;;;;14.55;6.70;;;;;;;13.11;66.15;100551.31;5089457;28;20044;-71
2022/04/22 07:31:16;;;;;;;14.27;6.50;;;;;;;13.10;64.34;100557.53;5092449;28;20145;-71
2022/04/22 07:33:44;;;;;;;9.43;6.70;;;;;;;13.07;62.89;100549.81;5101067;28;20488;-71
2022/04/22 07:36:11;;;;;;;13.05;6.28;;;;;;;12.93;63.96;100554.28;5109290;27;20048;-71
2022/04/22 07:38:38;;;;;;;9.27;6.78;;;;;;;13.00;65.09;100553.78;5106001;28;20995;-71
2022/04/22 07:41:08;;;;;;;9.52;6.30;;;;;;;12.96;64.56;100554.06;5096952;28;20090;-71
2022/04/22 07:49:05;;;;;;;16.70;6.68;;;;;;;12.47;64.96;100554.53;5091541;28;20461;-71
2022/04/22 07:51:32;;;;;;;12.18;7.05;;;;;;;12.46;65.52;100552.00;5104151;28;20062;-71
2022/04/22 07:53:58;;;;;;;14.35;7.28;;;;;;;12.38;66.14;100552.47;5095589;28;20036;-71
2022/04/22 07:56:25;;;;;;;11.50;7.55;;;;;;;12.25;67.33;100555.97;5092103;28;20048;-71
2022/04/22 07:58:53;;;;;;;16.52;7.88;;;;;;;12.41;67.12;100554.94;5107279;27;20039;-71
2022/04/22 08:01:19;;;;;;;16.35;7.85;;;;;;;12.49;66.69;100552.66;5109135;28;20501;-71
2022/04/22 08:03:45;;;;;;;14.77;7.25;;;;;;;12.63;66.42;100560.53;5098370;28;20590;-71
2022/04/22 08:06:13;;;;;;;18.83;8.25;;;;;;;12.52;65.88;100557.75;5093049;28;20036;-71
2022/04/22 08:08:40;;;;;;;11.60;7.85;;;;;;;12.61;66.85;100559.78;5105611;27;20048;-71
2022/04/22 08:11:07;;;;;;;11.80;7.50;;;;;;;13.00;66.71;100551.16;5090223;28;20123;-71
2022/04/22 08:13:35;;;;;;;12.95;7.10;;;;;;;13.27;65.80;100545.88;5089006;28;20043;-71
2022/04/22 08:16:01;;;;;;;13.18;7.85;;;;;;;13.69;66.28;100542.19;5106125;28;20044;-71
2022/04/22 08:18:28;;;;;;;14.65;7.13;;;;;;;13.80;61.85;100547.56;5094430;27;20072;-71
2022/04/22 08:20:54;;;;;;;12.38;6.95;;;;;;;14.51;63.03;100541.75;5088362;28;20638;-73
2022/04/22 08:23:22;;;;;;;10.88;7.00;;;;;;;15.22;60.94;100549.75;5105944;28;20047;-71
2022/04/22 08:25:49;;;;;;;12.00;6.32;;;;;;;15.59;58.98;100546.06;5096035;27;20040;-71
2022/04/22 08:28:15;;;;;;;11.88;6.15;;;;;;;15.54;58.33;100540.28;5102416;28;20101;-70
2022/04/22 08:30:42;;;;;;;12.40;6.97;;;;;;;15.92;58.17;100541.81;5100695;27;20055;-71
2022/04/22 08:33:08;;;;;;;11.35;7.30;;;;;;;16.26;56.74;100542.69;5082857;28;20473;-71
2022/04/22 08:35:37;;;;;;;15.85;6.85;;;;;;;16.32;56.68;100537.75;5082777;28;20781;-71
2022/04/22 08:38:06;;;;;;;8.82;5.85;;;;;;;16.23;55.91;100545.56;5095173;28;20043;-71
2022/04/22 08:40:36;;;;;;;10.05;6.38;;;;;;;16.17;57.07;100538.97;5089689;28;20109;-71
2022/04/22 08:43:04;;;;;;;11.68;6.82;;;;;;;16.04;57.20;100548.78;5099856;28;20043;-71
2022/04/22 08:45:33;;;;;;;14.80;7.40;;;;;;;15.84;57.28;100538.91;5106317;27;20051;-71
2022/04/22 08:50:47;;;;;;;15.85;7.05;;;;;;;15.26;58.11;100535.34;5092138;28;20062;-71
2022/04/22 08:53:22;;;;;;;11.35;6.90;;;;;;;15.08;59.08;100541.97;5094610;28;20039;-71
2022/04/22 08:55:55;;;;;;;13.45;6.75;;;;;;;14.78;58.78;100534.50;5092217;28;20052;-71
2022/04/22 08:58:24;;;;;;;13.32;7.60;;;;;;;15.08;59.98;100536.69;5098257;28;20085;-70
2022/04/22 09:00:52;;;;;;;10.93;7.00;;;;;;;15.22;57.21;100533.91;5086130;28;20136;-70
2022/04/22 09:03:19;;;;;;;12.48;7.20;;;;;;;15.17;58.57;100536.03;5086106;28;20093;-71
2022/04/22 09:05:45;;;;;;;16.45;7.82;;;;;;;15.52;59.67;100531.63;5106647;28;20065;-70
2022/04/22 09:08:13;;;;;;;10.63;7.30;;;;;;;15.75;56.08;100526.38;5092156;28;20457;-70
2022/04/22 09:10:40;;;;;;;10.07;6.88;;;;;;;15.81;57.20;100523.28;5086438;28;20052;-70
2022/04/22 09:13:10;;;;;;;16.00;7.00;;;;;;;15.60;57.49;100533.69;5073472;28;20035;-70
2022/04/22 09:15:39;;;;;;;11.65;7.00;;;;;;;15.44;59.12;100527.84;5107577;28;20468;-71
2022/04/22 09:18:11;;;;;;;12.55;6.63;;;;;;;15.75;58.68;100534.31;5094051;28;20044;-71
2022/04/22 09:20:38;;;;;;;12.63;6.65;;;;;;;15.77;56.83;100525.34;5091139;28;20423;-70
2022/04/22 09:23:23;;;;;;;14.02;7.07;;;;;;;15.49;57.21;100528.38;5087087;28;20040;-70
2022/04/22 09:25:49;;;;;;;15.27;7.45;;;;;;;15.55;58.25;100528.78;5087609;28;20056;-70
2022/04/22 09:28:17;;;;;;;13.55;7.05;;;;;;;16.12;57.17;100527.88;5090617;28;20040;-70
2022/04/22 09:30:43;;;;;;;11.77;7.13;;;;;;;16.53;57.20;100520.19;5082653;28;20044;-70
2022/04/22 09:33:10;;;;;;;12.95;7.22;;;;;;;16.74;55.87;100516.81;5087858;28;20093;-70
2022/04/22 09:42:38;;;;;;;11.45;7.00;;;;;;;16.80;57.16;100511.03;5070272;28;20515;-70
2022/04/22 09:44:02;;;;;;;10.55;7.65;;;;;;;17.75;52.62;100505.66;5019460;28;20048;-70
2022/04/22 09:46:30;;;;;;;13.10;7.50;;;;;;;17.32;52.64;100511.06;5078747;28;20052;-70
2022/04/22 09:48:57;;;;;;;12.50;7.30;;;;;;;17.08;53.65;100512.25;5086478;28;20105;-68
2022/04/22 09:51:26;;;;;;;17.02;7.85;;;;;;;17.01;56.08;100510.09;5086584;28;20040;-68
2022/04/22 09:54:01;;;;;;;13.10;8.23;;;;;;;17.01;53.72;100499.50;5087067;28;20450;-68
2022/04/22 09:56:28;;;;;;;12.80;7.90;;;;;;;17.22;55.14;100494.22;5078914;28;20043;-68
2022/04/22 09:58:54;;;;;;;13.70;7.60;;;;;;;17.29;53.36;100494.59;5086789;28;20043;-69
2022/04/22 10:01:24;;;;;;;12.40;8.68;;;;;;;17.44;54.49;100495.97;5087072;28;20071;-69
2022/04/22 10:03:51;;;;;;;9.73;7.72;;;;;;;17.27;56.16;100486.75;5087102;28;20098;-68
2022/04/22 10:06:19;;;;;;;12.75;8.20;;;;;;;17.48;54.40;100490.25;5087134;28;20177;-69
2022/04/22 10:08:48;;;;;;;12.55;8.50;;;;;;;17.26;56.28;100487.72;5086654;28;20081;-69
2022/04/22 10:11:16;;;;;;;12.18;8.27;;;;;;;17.50;54.93;100492.78;5085820;28;20044;-69
2022/04/22 10:13:46;;;;;;;11.40;7.93;;;;;;;17.42;54.74;100487.28;5077356;28;20036;-69
2022/04/22 10:16:13;;;;;;;15.48;8.88;;;;;;;17.23;55.45;100487.97;5072028;28;20550;-69
2022/04/22 10:18:42;;;;;;;17.45;8.70;;;;;;;17.36;52.97;100482.50;5077130;28;20560;-69
2022/04/22 10:21:10;;;;;;;13.02;8.35;;;;;;;17.32;54.24;100487.22;5083516;28;20044;-69
2022/04/22 10:23:37;;;;;;;14.75;8.88;;;;;;;17.56;53.54;100486.09;5088286;28;20491;-69
2022/04/22 10:26:05;;;;;;;14.02;8.73;;;;;;;17.77;55.39;100476.38;5088538;28;20039;-69
2022/04/22 10:28:32;;;;;;;18.17;8.43;;;;;;;18.02;54.75;100473.28;5072612;28;20055;-69
2022/04/22 10:31:02;;;;;;;14.80;8.40;;;;;;;17.89;53.10;100475.31;5083558;28;20067;-69
2022/04/22 10:33:38;;;;;;;11.13;8.35;;;;;;;18.14;54.64;100468.72;5090987;28;20044;-69
2022/04/22 10:36:07;;;;;;;13.05;9.63;;;;;;;18.33;53.86;100471.44;5090325;28;20655;-69
2022/04/22 10:38:37;;;;;;;14.27;8.63;;;;;;;18.03;53.07;100461.72;5086559;28;20056;-69
2022/04/22 10:41:13;;;;;;;14.23;8.57;;;;;;;18.38;53.23;100461.25;5089811;28;20097;-69
2022/04/22 10:43:40;;;;;;;11.73;8.50;;;;;;;18.76;54.13;100450.75;5090896;28;20051;-69
2022/04/22 10:49:14;;;;;;;12.57;8.73;;;;;;;18.46;50.81;100451.66;5080646;28;20051;-69
2022/04/22 10:52:02;;;;;;;10.38;8.18;;;;;;;19.00;51.71;100441.50;5088182;28;20110;-69
2022/04/22 10:55:06;;;;;;;15.48;9.20;;;;;;;19.22;51.24;100441.22;5090068;28;20253;-69
2022/04/22 10:57:34;;;;;;;11.82;8.48;;;;;;;20.14;49.01;100447.59;5079434;28;20040;-69
2022/04/22 11:00:28;;;;;;;10.15;8.50;;;;;;;20.37;46.94;100440.91;5083195;28;20048;-69
2022/04/22 11:03:13;;;;;;;14.20;8.48;;;;;;;20.19;48.15;100437.31;5069828;28;20036;-69
2022/04/22 11:05:45;;;;;;;13.13;8.90;;;;;;;20.14;46.45;100436.94;5078739;28;20473;-69
2022/04/22 11:08:19;;;;;;;;;;;;;;;19.70;48.65;100446.47;5089772;28;20040;-69
2022/04/22 11:11:02;;;;;;;11.85;8.48;;;;;;;19.58;48.00;100442.31;5084743;28;19927;-69
2022/04/22 11:13:30;;;;;;;13.13;9.48;;;;;;;18.93;47.33;100436.78;5077357;28;20512;-69
2022/04/22 11:16:00;;;;;;;12.63;8.60;;;;;;;18.39;49.19;100436.41;5068643;28;20118;-68
2022/04/22 11:18:27;;;;;;;10.48;8.68;;;;;;;19.00;52.39;100430.88;5068682;28;20089;-69
2022/04/22 11:21:02;;;;;;;16.95;8.48;;;;;;;18.89;50.63;100426.56;5056692;28;20052;-68
2022/04/22 11:23:37;;;;;;;16.58;9.90;;;;;;;19.35;52.20;100421.34;5077693;28;20450;-68
2022/04/22 11:26:04;;;;;;;17.95;9.35;;;;;;;19.81;48.99;100419.69;5062546;28;20419;-68
2022/04/22 11:28:34;;;;;;;16.13;8.93;;;;;;;20.62;50.64;100412.72;5079146;28;20097;-67
2022/04/22 11:31:03;;;;;;;12.73;9.07;;;;;;;20.31;48.45;100410.38;5088679;28;20044;-67
2022/04/22 11:33:35;;;;;;;12.82;9.18;;;;;;;19.70;46.63;100410.06;5088792;28;20419;-67
2022/04/22 11:36:06;;;;;;;12.73;9.43;;;;;;;19.11;49.58;100410.31;5089296;28;20089;-68
2022/04/22 11:38:32;;;;;;;12.82;8.93;;;;;;;19.26;47.74;100411.56;5089837;28;20044;-67
2022/04/22 11:41:00;;;;;;;15.55;11.63;;;;;;;19.53;49.59;100416.16;5082027;28;20102;-68
2022/04/22 11:43:29;;;;;;;17.08;10.50;;;;;;;19.55;49.53;100410.72;5086015;28;20044;-68
2022/04/22 11:45:55;;;;;;;13.05;9.70;;;;;;;19.43;48.46;100402.91;5086600;28;20158;-68
2022/04/22 11:48:23;;;;;;;14.20;10.63;;;;;;;19.74;48.47;100414.13;5088997;28;20074;-68
2022/04/22 11:50:50;;;;;;;12.85;10.40;;;;;;;19.63;49.62;100402.81;5088369;28;20132;-68
2022/04/22 11:53:18;;;;;;;18.45;13.00;;;;;;;19.16;47.17;100405.44;5089482;28;20496;-68
2022/04/22 11:55:47;;;;;;;16.17;10.85;;;;;;;19.18;47.26;100413.28;5087401;28;20047;-67
2022/04/22 11:58:16;;;;;;;15.68;10.20;;;;;;;18.84;47.94;100410.22;5082068;28;20051;-67
2022/04/22 12:06:15;;;;;;;17.27;9.27;;;;;;;18.26;50.99;100402.13;5088304;28;20511;-68
2022/04/22 12:08:51;;;;;;;15.38;9.48;;;;;;;18.03;51.98;100403.34;5088374;28;20101;-68
2022/04/22 12:11:18;;;;;;;13.73;9.05;;;;;;;18.10;51.23;100403.63;5072685;28;20047;-67
2022/04/22 12:13:47;;;;;;;14.38;9.15;;;;;;;18.11;51.29;100406.13;5089130;28;20048;-67
2022/04/22 12:16:18;;;;;;;15.15;10.25;;;;;;;18.08;50.45;100402.91;5089194;28;20048;-68
2022/04/22 12:18:47;;;;;;;13.73;10.05;;;;;;;17.76;50.50;100408.41;5066175;28;20040;-68
2022/04/22 12:21:14;;;;;;;12.95;9.43;;;;;;;17.65;50.67;100403.19;5068695;28;20045;-67
2022/04/22 12:23:42;;;;;;;14.95;9.15;;;;;;;17.19;51.60;100401.75;5069006;28;20036;-67